Aviation Digital Data Service (ADDS)

Output produced by METARs form (0121 UTC 14 May 2021)
found at http://aviationweather.gov/metar/data/
 
METAR text: KLOT 140056Z AUTO 11006KT 10SM CLR 15/M01 A3031 RMK AO2
Conditions at: KLOT (ROMEOVILLE/CHI , IL, US) observed 0056 UTC 14 May 2021
Temperature: 15.0°C (59°F)
Dewpoint: -1.0°C (30°F) [RH = 33%]
Pressure (altimeter): 30.31 inches Hg (1026.5 mb)
Winds: from the ESE (110 degrees) at 7 MPH (6 knots; 3.1 m/s)
Visibility: 10 or more miles (16+ km)
Ceiling: at least 12,000 feet AGL
Clouds: sky clear below 12,000 feet AGL
Weather: automated observation with no human augmentation;
there may or may not be significant weather present at this time

METAR text: KLOT 140038Z AUTO 11004KT 10SM SCT100 16/01 A3030 RMK AO2
Conditions at: KLOT (ROMEOVILLE/CHI , IL, US) observed 0038 UTC 14 May 2021
Temperature: 16.0°C (61°F)
Dewpoint: 1.0°C (34°F) [RH = 36%]
Pressure (altimeter): 30.30 inches Hg (1026.2 mb)
Winds: from the ESE (110 degrees) at 5 MPH (4 knots; 2.1 m/s)
Visibility: 10 or more miles (16+ km)
Ceiling: at least 12,000 feet AGL
Clouds: scattered clouds at 10000 feet AGL
Weather: automated observation with no human augmentation;
there may or may not be significant weather present at this time

METAR text: KLOT 140019Z AUTO 11007KT 10SM SCT100 16/01 A3030 RMK AO2
Conditions at: KLOT (ROMEOVILLE/CHI , IL, US) observed 0019 UTC 14 May 2021
Temperature: 16.0°C (61°F)
Dewpoint: 1.0°C (34°F) [RH = 36%]
Pressure (altimeter): 30.30 inches Hg (1026.2 mb)
Winds: from the ESE (110 degrees) at 8 MPH (7 knots; 3.6 m/s)
Visibility: 10 or more miles (16+ km)
Ceiling: at least 12,000 feet AGL
Clouds: scattered clouds at 10000 feet AGL
Weather: automated observation with no human augmentation;
there may or may not be significant weather present at this time

METAR text: KLOT 132359Z AUTO 00000KT 10SM SCT110 18/03 A3030 RMK AO2
Conditions at: KLOT (ROMEOVILLE/CHI , IL, US) observed 2359 UTC 13 May 2021
Temperature: 18.0°C (64°F)
Dewpoint: 3.0°C (37°F) [RH = 37%]
Pressure (altimeter): 30.30 inches Hg (1026.2 mb)
Winds: calm
Visibility: 10 or more miles (16+ km)
Ceiling: at least 12,000 feet AGL
Clouds: scattered clouds at 11000 feet AGL
Weather: automated observation with no human augmentation;
there may or may not be significant weather present at this time

METAR text: KLOT 132338Z AUTO 00000KT 10SM SCT100 18/02 A3030 RMK AO2
Conditions at: KLOT (ROMEOVILLE/CHI , IL, US) observed 2338 UTC 13 May 2021
Temperature: 18.0°C (64°F)
Dewpoint: 2.0°C (36°F) [RH = 34%]
Pressure (altimeter): 30.30 inches Hg (1026.2 mb)
Winds: calm
Visibility: 10 or more miles (16+ km)
Ceiling: at least 12,000 feet AGL
Clouds: scattered clouds at 10000 feet AGL
Weather: automated observation with no human augmentation;
there may or may not be significant weather present at this time